Time;durP1;ratioP1;P1;durP2;ratioP2;P2;SDS_P1;SDS_P2;PMS_P1;PMS_P2;Temp;Humidity;BMP_temperature;BMP_pressure;BME280_temperature;BME280_humidity;BME280_pressure;Samples;Min_cycle;Max_cycle;Signal;HPM_P1;HPM_P2
2023/09/28 00:01:13;;;;;;;8.73;4.95;;;;;;;24.47;45.46;100717.88;5113478;28;20092;-65
2023/09/28 00:03:47;;;;;;;8.98;5.07;;;;;;;24.46;45.40;100719.75;5113517;28;20047;-65
2023/09/28 00:06:14;;;;;;;8.15;5.20;;;;;;;24.45;45.41;100728.94;5113276;28;20040;-65
2023/09/28 00:08:44;;;;;;;8.10;5.07;;;;;;;24.45;45.37;100726.22;5112976;28;20050;-65
2023/09/28 00:11:11;;;;;;;8.57;5.10;;;;;;;24.43;45.63;100721.97;5112742;28;20128;-66
2023/09/28 00:13:41;;;;;;;7.90;5.03;;;;;;;24.43;45.61;100719.25;5112629;28;20114;-66
2023/09/28 00:16:08;;;;;;;8.60;5.20;;;;;;;24.41;45.60;100726.72;5112946;28;20058;-66
2023/09/28 00:18:37;;;;;;;7.78;5.15;;;;;;;24.41;45.72;100716.66;5112892;28;20100;-66
2023/09/28 00:21:04;;;;;;;7.25;4.82;;;;;;;24.39;45.40;100718.72;5112312;28;20047;-65
2023/09/28 00:23:32;;;;;;;8.18;4.93;;;;;;;24.38;45.40;100717.00;5112980;28;20087;-65
2023/09/28 00:25:59;;;;;;;6.75;4.63;;;;;;;24.37;45.48;100720.75;5112607;28;20495;-65
2023/09/28 00:28:28;;;;;;;7.93;5.18;;;;;;;24.35;45.50;100714.63;5112817;28;20112;-65
2023/09/28 00:30:57;;;;;;;8.30;5.10;;;;;;;24.35;45.43;100714.63;5112765;28;20143;-65
2023/09/28 00:33:25;;;;;;;7.07;4.95;;;;;;;24.34;45.46;100712.94;5112605;28;20040;-65
2023/09/28 00:35:53;;;;;;;7.15;4.93;;;;;;;24.33;45.55;100724.88;5112587;28;20047;-65
2023/09/28 00:38:21;;;;;;;7.97;4.70;;;;;;;24.32;45.50;100725.91;5112582;28;20470;-65
2023/09/28 00:40:48;;;;;;;8.02;4.97;;;;;;;24.31;45.42;100721.44;5112365;28;20479;-65
2023/09/28 00:43:26;;;;;;;8.45;4.90;;;;;;;24.30;45.35;100733.34;5112418;28;20088;-65
2023/09/28 00:45:53;;;;;;;7.60;4.35;;;;;;;24.31;45.54;100731.44;5112574;28;20066;-65
2023/09/28 00:48:25;;;;;;;7.22;5.00;;;;;;;24.30;45.58;100725.16;5112266;28;20480;-65
2023/09/28 00:50:52;;;;;;;7.07;4.97;;;;;;;24.28;45.57;100728.06;5112322;28;20455;-65
2023/09/28 00:53:21;;;;;;;7.72;4.90;;;;;;;24.27;45.59;100720.06;5112275;28;20039;-65
2023/09/28 00:55:49;;;;;;;6.88;5.25;;;;;;;24.22;45.44;100716.97;5112378;28;20090;-65
2023/09/28 00:58:18;;;;;;;7.35;4.47;;;;;;;24.26;45.69;100723.81;5111791;28;20605;-65
2023/09/28 01:00:49;;;;;;;6.57;4.80;;;;;;;24.19;45.45;100722.75;5112134;28;20051;-65
2023/09/28 01:03:17;;;;;;;8.90;4.68;;;;;;;24.24;45.69;100725.84;5112283;28;20065;-66
2023/09/28 01:05:48;;;;;;;7.22;4.97;;;;;;;24.24;45.93;100720.41;5112192;28;20051;-65
2023/09/28 01:08:19;;;;;;;7.13;4.55;;;;;;;24.22;45.81;100722.41;5112136;28;20039;-65
2023/09/28 01:10:46;;;;;;;8.98;4.70;;;;;;;24.21;45.71;100720.72;5111732;28;20974;-65
2023/09/28 01:13:17;;;;;;;7.50;4.78;;;;;;;24.20;45.49;100725.31;5112083;28;20077;-65
2023/09/28 01:15:47;;;;;;;6.78;4.72;;;;;;;24.20;45.82;100719.00;5111869;28;20530;-65
2023/09/28 01:18:17;;;;;;;7.30;4.80;;;;;;;24.17;45.90;100719.38;5112043;28;20075;-65
2023/09/28 01:20:51;;;;;;;7.50;4.53;;;;;;;24.17;45.72;100719.38;5112042;28;20040;-65
2023/09/28 01:23:20;;;;;;;8.35;4.75;;;;;;;24.16;45.60;100723.13;5112002;28;20035;-65
2023/09/28 01:25:49;;;;;;;8.70;5.25;;;;;;;24.16;45.72;100723.13;5111903;28;20142;-65
2023/09/28 01:28:17;;;;;;;6.28;4.80;;;;;;;24.15;45.75;100715.97;5111734;28;20055;-65
2023/09/28 01:30:46;;;;;;;7.63;4.63;;;;;;;24.15;46.13;100724.13;5111867;28;20734;-65
2023/09/28 01:33:14;;;;;;;6.57;4.60;;;;;;;24.13;45.99;100720.75;5114018;28;20389;-65
2023/09/28 01:35:42;;;;;;;7.80;4.90;;;;;;;24.13;45.76;100723.47;5115933;28;20047;-65
2023/09/28 01:38:16;;;;;;;6.15;4.38;;;;;;;24.12;45.84;100721.72;5116063;28;20119;-65
2023/09/28 01:40:51;;;;;;;7.10;4.80;;;;;;;24.11;46.22;100723.59;5115820;28;20040;-65
2023/09/28 01:43:18;;;;;;;7.57;4.57;;;;;;;24.09;45.84;100720.19;5115526;28;20040;-65
2023/09/28 01:45:46;;;;;;;6.55;4.72;;;;;;;24.09;45.83;100735.69;5115844;28;20054;-65
2023/09/28 01:48:15;;;;;;;7.72;4.25;;;;;;;24.09;46.22;100732.97;5116211;28;20044;-65
2023/09/28 01:50:44;;;;;;;6.93;4.72;;;;;;;24.07;46.04;100740.47;5115689;28;20050;-66
2023/09/28 01:53:14;;;;;;;6.93;5.10;;;;;;;24.06;45.83;100746.94;5115778;28;20125;-65
2023/09/28 01:55:42;;;;;;;6.75;4.82;;;;;;;24.06;46.11;100744.22;5115472;28;20051;-65
2023/09/28 01:58:11;;;;;;;7.07;4.45;;;;;;;24.05;45.91;100745.25;5115237;28;20476;-65
2023/09/28 02:00:45;;;;;;;7.03;4.65;;;;;;;24.02;46.24;100742.84;5115517;28;20059;-65
2023/09/28 02:03:14;;;;;;;7.43;4.57;;;;;;;24.01;46.37;100736.53;5115452;28;20066;-65
2023/09/28 02:05:43;;;;;;;7.03;4.60;;;;;;;24.01;46.17;100730.22;5115600;28;20093;-65
2023/09/28 02:08:11;;;;;;;6.95;4.65;;;;;;;24.00;46.35;100734.84;5115129;28;20134;-65
2023/09/28 02:10:40;;;;;;;7.63;4.47;;;;;;;23.97;46.36;100727.84;5114892;28;20642;-65
2023/09/28 02:13:07;;;;;;;6.63;4.40;;;;;;;23.97;46.42;100730.56;5115171;28;20044;-64
2023/09/28 02:15:37;;;;;;;6.78;4.53;;;;;;;23.97;46.45;100736.03;5115193;28;20043;-64
2023/09/28 02:18:05;;;;;;;7.28;4.78;;;;;;;23.97;46.16;100732.44;5115138;28;20399;-64
2023/09/28 02:20:34;;;;;;;6.97;4.70;;;;;;;23.95;46.48;100732.63;5115212;28;20099;-64
2023/09/28 02:23:01;;;;;;;7.00;4.80;;;;;;;23.94;46.31;100736.38;5098328;28;20042;-66
2023/09/28 02:25:30;;;;;;;5.88;4.38;;;;;;;23.93;46.43;100739.22;5115028;28;20144;-65
2023/09/28 02:27:58;;;;;;;7.72;5.00;;;;;;;23.93;46.32;100744.69;5114850;28;20047;-65
2023/09/28 02:30:26;;;;;;;7.95;4.97;;;;;;;23.93;46.35;100741.97;5115076;28;20047;-65
2023/09/28 02:32:55;;;;;;;8.73;4.60;;;;;;;23.92;46.55;100742.97;5114500;28;20044;-65
2023/09/28 02:35:24;;;;;;;8.25;4.63;;;;;;;23.91;46.39;100742.13;5114528;28;20047;-65
2023/09/28 02:37:53;;;;;;;7.35;4.90;;;;;;;23.90;46.45;100745.88;5114726;28;20396;-65
2023/09/28 02:40:23;;;;;;;7.10;4.70;;;;;;;23.89;46.42;100749.63;5114983;28;20040;-65
2023/09/28 02:42:52;;;;;;;8.73;4.88;;;;;;;23.89;46.49;100746.06;5114143;28;20437;-64
2023/09/28 02:45:20;;;;;;;6.80;4.32;;;;;;;23.88;46.46;100747.06;5114542;28;20391;-65
2023/09/28 02:47:48;;;;;;;7.00;4.82;;;;;;;23.87;46.60;100743.50;5114331;28;20051;-65
2023/09/28 02:50:18;;;;;;;8.38;5.00;;;;;;;23.87;46.46;100746.22;5114202;28;20484;-64
2023/09/28 02:52:46;;;;;;;7.07;4.05;;;;;;;23.86;46.34;100738.22;5114400;28;20130;-65
2023/09/28 02:55:17;;;;;;;7.18;4.65;;;;;;;23.85;46.45;100737.38;5114119;28;20043;-64
2023/09/28 02:57:47;;;;;;;6.97;4.32;;;;;;;23.84;46.46;100732.09;5114358;28;20130;-64
2023/09/28 03:00:18;;;;;;;7.25;4.55;;;;;;;23.85;46.58;100741.97;5114419;28;20043;-64
2023/09/28 03:02:46;;;;;;;7.43;4.60;;;;;;;23.83;46.75;100739.38;5114067;28;20043;-65
2023/09/28 03:05:16;;;;;;;6.68;4.68;;;;;;;23.82;46.75;100732.22;5114051;28;20050;-64
2023/09/28 03:07:46;;;;;;;6.85;4.70;;;;;;;23.82;46.56;100731.38;5114478;28;20121;-65
2023/09/28 03:10:14;;;;;;;7.18;4.70;;;;;;;23.81;46.69;100738.69;5114138;28;20466;-65
2023/09/28 03:12:45;;;;;;;7.78;4.88;;;;;;;23.80;46.71;100738.88;5113761;28;20079;-64
2023/09/28 03:15:13;;;;;;;6.35;4.30;;;;;;;23.79;46.75;100732.56;5113790;28;20035;-64
2023/09/28 03:17:41;;;;;;;7.25;4.90;;;;;;;23.79;46.92;100739.91;5113995;28;20055;-64
2023/09/28 03:20:14;;;;;;;7.43;4.80;;;;;;;23.77;46.86;100734.63;5114061;28;20044;-64
2023/09/28 03:22:43;;;;;;;6.95;4.70;;;;;;;23.77;46.75;100745.50;5113702;28;20517;-64
2023/09/28 03:25:16;;;;;;;6.13;4.25;;;;;;;23.76;46.81;100748.41;5113699;28;20561;-64
2023/09/28 03:27:45;;;;;;;7.28;4.90;;;;;;;23.74;46.82;100745.84;5113548;28;20048;-64
2023/09/28 03:30:15;;;;;;;6.60;4.55;;;;;;;23.74;46.74;100748.59;5113903;28;20096;-64
2023/09/28 03:32:42;;;;;;;6.15;4.47;;;;;;;23.72;46.31;100753.31;5113860;28;20051;-64
2023/09/28 03:35:11;;;;;;;8.18;4.95;;;;;;;23.72;46.95;100756.03;5113929;28;20056;-64
2023/09/28 03:37:41;;;;;;;7.13;5.07;;;;;;;23.71;46.73;100762.50;5113609;28;20048;-64
2023/09/28 03:40:12;;;;;;;6.63;4.63;;;;;;;23.69;46.81;100762.69;5112648;28;20051;-64
2023/09/28 03:42:43;;;;;;;6.30;4.30;;;;;;;23.68;46.93;100760.13;5113233;28;20129;-64
2023/09/28 03:45:14;;;;;;;7.50;4.57;;;;;;;23.67;47.19;100761.13;5113194;28;20043;-64
2023/09/28 03:47:44;;;;;;;6.55;4.20;;;;;;;23.66;46.87;100759.44;5113447;28;20075;-65
2023/09/28 03:50:13;;;;;;;6.95;4.70;;;;;;;23.65;46.98;100764.03;5113270;28;20492;-64
2023/09/28 03:52:43;;;;;;;7.75;4.88;;;;;;;23.65;47.01;100765.91;5113347;28;20425;-64
2023/09/28 03:55:13;;;;;;;6.88;4.80;;;;;;;23.63;47.02;100770.63;5112126;28;20044;-63
2023/09/28 03:57:44;;;;;;;6.32;4.63;;;;;;;23.63;47.00;100767.91;5113164;28;20057;-64
2023/09/28 04:00:14;;;;;;;6.22;4.50;;;;;;;23.61;47.13;100756.34;5113200;28;20051;-64
2023/09/28 04:02:45;;;;;;;7.13;4.85;;;;;;;23.61;47.00;100768.09;5113039;28;20043;-66
2023/09/28 04:05:18;;;;;;;6.30;4.50;;;;;;;23.61;47.06;100772.69;5112857;28;20484;-66
2023/09/28 04:07:48;;;;;;;6.53;5.00;;;;;;;23.60;47.00;100770.97;5113170;28;20055;-65
2023/09/28 04:10:17;;;;;;;6.60;4.45;;;;;;;23.60;47.02;100776.44;5112875;28;20048;-66
2023/09/28 04:12:51;;;;;;;6.80;4.60;;;;;;;23.59;47.16;100769.28;5112497;28;20051;-65
2023/09/28 04:15:19;;;;;;;7.22;4.57;;;;;;;23.57;47.17;100772.13;5112839;28;20046;-63
2023/09/28 04:17:48;;;;;;;7.13;4.82;;;;;;;23.57;47.13;100772.13;5112553;28;20074;-64
2023/09/28 04:20:16;;;;;;;6.60;4.80;;;;;;;23.57;47.13;100765.84;5112915;28;20142;-64
2023/09/28 04:22:45;;;;;;;7.75;5.03;;;;;;;23.56;47.05;100769.59;5112621;28;20043;-65
2023/09/28 04:25:15;;;;;;;8.57;4.50;;;;;;;23.55;47.08;100767.88;5112853;28;20036;-64
2023/09/28 04:27:43;;;;;;;7.93;4.53;;;;;;;23.54;47.13;100782.47;5112507;28;20046;-64
2023/09/28 04:30:14;;;;;;;6.60;4.63;;;;;;;23.53;47.12;100778.91;5111866;28;20100;-65
2023/09/28 04:32:45;;;;;;;7.55;5.13;;;;;;;23.52;47.28;100779.06;5112358;28;20503;-64
2023/09/28 04:35:13;;;;;;;8.40;5.30;;;;;;;23.53;47.09;100769.88;5112757;28;20051;-65
2023/09/28 04:37:42;;;;;;;8.90;4.70;;;;;;;23.51;47.20;100783.66;5112469;28;20134;-64
2023/09/28 04:40:13;;;;;;;7.88;4.97;;;;;;;23.51;47.00;100778.22;5112609;28;20082;-65
2023/09/28 04:42:41;;;;;;;6.95;4.65;;;;;;;23.51;47.20;100782.81;5112178;28;20122;-65
2023/09/28 04:45:11;;;;;;;8.02;5.22;;;;;;;23.50;47.17;100779.25;5112077;28;20051;-65
2023/09/28 04:47:42;;;;;;;6.10;4.50;;;;;;;23.49;47.31;100784.84;5112434;28;20548;-64
2023/09/28 04:50:11;;;;;;;7.10;4.70;;;;;;;23.49;47.30;100787.56;5112168;28;20047;-64
2023/09/28 04:52:42;;;;;;;7.93;5.10;;;;;;;23.48;47.62;100789.44;5112333;28;20192;-64
2023/09/28 04:55:11;;;;;;;7.97;4.88;;;;;;;23.47;47.19;100795.06;5112052;28;20116;-64
2023/09/28 04:57:41;;;;;;;7.22;4.68;;;;;;;23.47;47.43;100797.78;5112249;28;20062;-64
2023/09/28 05:00:15;;;;;;;9.25;5.05;;;;;;;23.46;47.64;100787.91;5112350;28;20047;-64
2023/09/28 05:02:47;;;;;;;6.75;4.70;;;;;;;23.46;47.34;100796.06;5112281;28;20130;-63
2023/09/28 05:05:16;;;;;;;7.40;4.68;;;;;;;23.46;47.37;100796.06;5112075;28;20104;-63
2023/09/28 05:07:45;;;;;;;7.38;5.13;;;;;;;23.45;47.54;100799.78;5111673;28;20051;-64
2023/09/28 05:10:14;;;;;;;6.90;4.80;;;;;;;23.44;47.59;100798.94;5111801;28;20048;-64
2023/09/28 05:12:42;;;;;;;7.53;5.43;;;;;;;23.43;47.48;100798.09;5111601;28;20115;-64
2023/09/28 05:15:12;;;;;;;8.95;5.00;;;;;;;23.42;47.35;100801.81;5111617;28;20044;-65
2023/09/28 05:17:40;;;;;;;7.45;4.82;;;;;;;23.42;47.56;100795.53;5111612;28;20552;-65
2023/09/28 05:20:11;;;;;;;7.13;5.15;;;;;;;23.41;47.46;100800.13;5112114;28;20047;-64
2023/09/28 05:22:40;;;;;;;8.82;5.10;;;;;;;23.42;47.55;100804.56;5111600;28;20143;-65
2023/09/28 05:25:09;;;;;;;10.25;5.18;;;;;;;23.41;47.51;100805.56;5111690;28;20039;-66
2023/09/28 05:27:37;;;;;;;7.78;4.80;;;;;;;23.39;47.75;100809.47;5111654;28;20524;-65
2023/09/28 05:30:06;;;;;;;7.85;5.18;;;;;;;23.40;47.92;100808.47;5111895;28;20089;-64
2023/09/28 05:32:35;;;;;;;7.85;4.68;;;;;;;23.39;48.16;100812.19;5111382;28;20046;-64
2023/09/28 05:35:05;;;;;;;7.68;4.95;;;;;;;23.39;47.92;100813.06;5111221;28;20042;-65
2023/09/28 05:37:35;;;;;;;7.65;5.07;;;;;;;23.36;47.87;100813.38;5111137;28;20093;-66
2023/09/28 05:40:05;;;;;;;8.27;4.85;;;;;;;23.38;47.96;100814.06;5110945;28;20055;-66
2023/09/28 05:42:34;;;;;;;6.95;5.30;;;;;;;23.37;48.11;100809.66;5111576;28;20058;-65
2023/09/28 05:45:03;;;;;;;8.75;4.90;;;;;;;23.37;47.88;100814.25;5094050;28;20056;-64
2023/09/28 05:47:31;;;;;;;9.50;5.88;;;;;;;23.36;48.08;100807.94;5110989;28;20131;-65
2023/09/28 05:49:59;;;;;;;8.00;5.10;;;;;;;23.37;48.05;100808.78;5110891;28;20043;-66
2023/09/28 05:52:29;;;;;;;7.95;5.47;;;;;;;23.37;48.11;100811.50;5111333;28;20520;-65
2023/09/28 05:54:58;;;;;;;11.63;5.45;;;;;;;23.36;48.01;100807.94;5111429;28;20048;-68
2023/09/28 05:57:28;;;;;;;7.13;4.85;;;;;;;23.35;48.21;100810.78;5110964;28;20514;-65
2023/09/28 05:59:56;;;;;;;7.85;5.63;;;;;;;23.34;48.09;100815.38;5111406;28;20403;-67
2023/09/28 06:02:24;;;;;;;8.20;5.53;;;;;;;23.34;48.27;100820.84;5111141;28;20063;-66
2023/09/28 06:04:53;;;;;;;7.97;5.50;;;;;;;23.34;48.43;100826.28;5110367;28;20078;-66
2023/09/28 06:07:23;;;;;;;8.38;5.32;;;;;;;23.34;48.42;100826.28;5110762;28;20488;-61
2023/09/28 06:09:52;;;;;;;8.32;5.75;;;;;;;23.34;48.29;100825.44;5111679;28;20682;-64
2023/09/28 06:12:22;;;;;;;10.23;6.05;;;;;;;23.33;48.35;100824.56;5111102;28;20047;-62
2023/09/28 06:14:50;;;;;;;8.70;5.40;;;;;;;23.33;48.51;100827.28;5111382;28;20073;-64
2023/09/28 06:17:19;;;;;;;12.35;6.07;;;;;;;23.33;48.65;100821.84;5110988;28;20070;-65
2023/09/28 06:19:47;;;;;;;10.43;6.07;;;;;;;23.33;48.69;100818.28;5113957;28;20073;-64
2023/09/28 06:22:26;;;;;;;13.38;6.32;;;;;;;23.33;48.83;100830.00;5097435;28;20055;-65
2023/09/28 06:24:55;;;;;;;10.88;6.05;;;;;;;23.33;49.06;100832.75;5114609;28;20047;-66
2023/09/28 06:27:28;;;;;;;8.88;5.65;;;;;;;23.33;48.85;100835.47;5114307;28;20048;-66
2023/09/28 06:29:56;;;;;;;16.67;6.63;;;;;;;23.33;48.72;100832.75;5114582;28;20040;-66
2023/09/28 06:32:26;;;;;;;9.65;6.15;;;;;;;23.33;48.88;100829.16;5114458;28;20101;-65
2023/09/28 06:34:55;;;;;;;11.25;6.18;;;;;;;23.32;49.06;100825.59;5114436;28;20110;-66
2023/09/28 06:37:27;;;;;;;9.43;6.00;;;;;;;23.32;48.93;100825.59;5096388;28;20048;-66
2023/09/28 06:39:56;;;;;;;10.75;5.90;;;;;;;23.33;48.97;100834.59;5114286;28;20488;-66
2023/09/28 06:42:24;;;;;;;10.38;5.75;;;;;;;23.33;48.90;100829.16;5114532;28;20047;-65
2023/09/28 06:45:07;;;;;;;11.35;6.72;;;;;;;23.33;49.01;100832.75;5114466;28;20476;-66
2023/09/28 06:47:39;;;;;;;12.15;7.10;;;;;;;23.33;49.02;100838.19;5114755;28;20047;-65
2023/09/28 06:50:10;;;;;;;10.07;5.90;;;;;;;23.33;48.67;100840.91;5114524;28;20079;-67
2023/09/28 06:52:39;;;;;;;13.38;6.63;;;;;;;23.33;48.83;100838.19;5114171;28;20055;-65
2023/09/28 06:55:08;;;;;;;10.18;6.10;;;;;;;23.33;49.02;100846.34;5114081;28;20459;-65
2023/09/28 06:57:36;;;;;;;17.92;6.20;;;;;;;23.34;49.04;100853.50;5113803;28;20582;-65
2023/09/28 07:00:09;;;;;;;13.27;6.43;;;;;;;23.34;49.12;100842.59;5114628;28;20040;-65
2023/09/28 07:02:37;;;;;;;;;;;;;;;23.34;49.03;100842.59;5114976;28;20045;-65
2023/09/28 07:05:06;;;;;;;11.18;6.32;;;;;;;23.34;49.06;100842.59;5114173;28;19926;-65
2023/09/28 07:07:35;;;;;;;10.70;6.65;;;;;;;23.34;49.24;100853.50;5114251;28;20429;-65
2023/09/28 07:10:04;;;;;;;9.48;5.80;;;;;;;23.35;49.30;100855.19;5096348;28;20116;-65
2023/09/28 07:12:32;;;;;;;11.82;6.32;;;;;;;23.34;49.19;100856.22;5113931;28;20439;-65
2023/09/28 07:15:00;;;;;;;9.45;6.07;;;;;;;23.35;49.20;100860.66;5113819;28;20536;-65
2023/09/28 07:17:30;;;;;;;9.38;5.93;;;;;;;23.36;49.18;100856.94;5113776;28;20086;-65
2023/09/28 07:19:59;;;;;;;10.05;6.30;;;;;;;23.36;49.17;100864.25;5113796;28;20047;-65
2023/09/28 07:22:27;;;;;;;10.35;6.50;;;;;;;23.36;49.24;100862.38;5114093;28;20051;-65
2023/09/28 07:24:56;;;;;;;14.65;6.60;;;;;;;23.37;49.32;100864.09;5114059;28;20050;-65
2023/09/28 07:27:30;;;;;;;8.75;6.30;;;;;;;23.38;49.25;100865.78;5113841;28;20048;-65
2023/09/28 07:29:59;;;;;;;10.18;6.05;;;;;;;23.37;49.36;100866.81;5113766;28;20047;-65
2023/09/28 07:32:29;;;;;;;9.15;5.63;;;;;;;23.39;49.38;100870.22;5113536;28;20075;-65
2023/09/28 07:34:59;;;;;;;9.68;6.10;;;;;;;23.39;49.35;100862.03;5113862;28;20126;-66
2023/09/28 07:37:28;;;;;;;8.60;5.82;;;;;;;23.37;49.24;100863.22;5113239;28;20043;-66
2023/09/28 07:39:56;;;;;;;9.63;6.13;;;;;;;23.39;49.36;100867.50;5113388;28;20457;-65
2023/09/28 07:42:24;;;;;;;8.30;5.70;;;;;;;23.41;49.38;100870.91;5113347;28;20052;-65
2023/09/28 07:44:55;;;;;;;11.48;6.30;;;;;;;23.41;49.49;100873.63;5113349;28;20079;-65
2023/09/28 07:47:23;;;;;;;11.95;6.63;;;;;;;23.41;49.51;100876.34;5113753;28;20459;-65
2023/09/28 07:49:53;;;;;;;9.80;5.95;;;;;;;23.42;49.34;100871.75;5113357;28;20047;-65
2023/09/28 07:52:23;;;;;;;8.77;5.90;;;;;;;23.42;49.37;100872.59;5113536;28;20076;-66
2023/09/28 07:54:51;;;;;;;10.05;5.93;;;;;;;23.42;49.28;100871.75;5113317;28;20047;-66
2023/09/28 07:57:19;;;;;;;10.48;6.25;;;;;;;23.43;49.36;100874.31;5113086;28;20376;-65
2023/09/28 07:59:48;;;;;;;8.80;5.93;;;;;;;23.45;49.36;100878.75;5113093;28;20476;-65
2023/09/28 08:02:16;;;;;;;9.48;5.88;;;;;;;23.44;49.47;100880.59;5113363;28;20039;-65
2023/09/28 08:04:44;;;;;;;8.18;5.68;;;;;;;23.45;49.31;100879.63;5113135;28;20124;-65
2023/09/28 08:07:12;;;;;;;10.25;5.97;;;;;;;23.47;49.26;100874.00;5112923;28;20044;-65
2023/09/28 08:09:43;;;;;;;10.73;5.70;;;;;;;23.47;49.26;100880.31;5113020;28;20048;-65
2023/09/28 08:12:11;;;;;;;8.25;5.78;;;;;;;23.47;49.15;100880.31;5112542;28;20516;-65
2023/09/28 08:14:40;;;;;;;8.52;5.60;;;;;;;23.49;49.14;100871.97;5112926;28;20428;-65
2023/09/28 08:17:09;;;;;;;9.20;5.90;;;;;;;23.49;49.19;100874.69;5112914;28;20043;-65
2023/09/28 08:19:38;;;;;;;9.52;5.55;;;;;;;23.50;49.21;100873.69;5112729;28;20434;-65
2023/09/28 08:22:06;;;;;;;10.68;5.80;;;;;;;23.51;49.24;100872.66;5112602;28;20405;-65
2023/09/28 08:24:34;;;;;;;8.95;5.93;;;;;;;23.51;49.23;100875.38;5094408;28;20051;-65
2023/09/28 08:27:04;;;;;;;8.23;5.60;;;;;;;23.51;49.10;100869.94;5112571;28;20060;-65
2023/09/28 08:29:34;;;;;;;7.82;5.65;;;;;;;23.52;49.15;100871.66;5112602;28;20426;-65
2023/09/28 08:32:03;;;;;;;8.18;5.32;;;;;;;23.52;49.14;100867.06;5112422;28;20154;-65
2023/09/28 08:34:34;;;;;;;9.10;5.82;;;;;;;23.54;49.18;100861.44;5112408;28;20040;-65
2023/09/28 08:37:08;;;;;;;10.00;5.50;;;;;;;23.54;49.27;100864.16;5112311;28;20093;-65
2023/09/28 08:39:37;;;;;;;8.40;5.47;;;;;;;23.55;49.17;100860.44;5112262;28;20047;-65
2023/09/28 08:42:13;;;;;;;9.63;6.00;;;;;;;23.55;49.12;100855.00;5111951;28;20052;-65
2023/09/28 08:44:41;;;;;;;8.35;5.45;;;;;;;23.54;49.20;100854.13;5112331;28;20040;-65
2023/09/28 08:47:16;;;;;;;9.77;5.68;;;;;;;23.55;49.05;100857.72;5112228;28;20040;-65
2023/09/28 08:49:48;;;;;;;9.00;5.32;;;;;;;23.58;49.08;100860.13;5112220;28;20053;-65
2023/09/28 08:52:18;;;;;;;9.57;6.07;;;;;;;23.58;48.98;100860.97;5112390;28;20044;-65
2023/09/28 08:54:46;;;;;;;9.55;5.45;;;;;;;23.59;49.16;100854.53;5112556;28;20134;-65
2023/09/28 08:57:17;;;;;;;9.10;5.30;;;;;;;23.60;49.09;100852.66;5112014;28;20043;-65
2023/09/28 08:59:46;;;;;;;9.68;5.03;;;;;;;23.61;49.23;100859.81;5112141;28;20090;-64
2023/09/28 09:02:15;;;;;;;10.00;5.60;;;;;;;23.61;49.13;100859.81;5112050;28;20122;-65
2023/09/28 09:04:45;;;;;;;9.60;6.03;;;;;;;23.63;49.12;100857.78;5112280;28;20048;-65
2023/09/28 09:07:14;;;;;;;8.98;5.60;;;;;;;23.64;49.13;100856.75;5112217;28;20047;-65
2023/09/28 09:09:46;;;;;;;8.38;5.45;;;;;;;23.65;48.98;100858.50;5112106;28;20043;-65
2023/09/28 09:12:16;;;;;;;8.70;5.63;;;;;;;23.65;48.99;100853.91;5111843;28;20047;-65
2023/09/28 09:14:44;;;;;;;10.93;5.55;;;;;;;23.66;48.96;100852.88;5111918;28;20079;-65
2023/09/28 09:17:13;;;;;;;7.10;5.00;;;;;;;23.69;49.01;100857.16;5111937;28;20074;-65
2023/09/28 09:19:43;;;;;;;9.30;5.75;;;;;;;23.70;49.08;100853.41;5112066;28;20066;-65
2023/09/28 09:22:25;;;;;;;6.85;4.90;;;;;;;23.73;48.99;100853.06;5112081;28;20074;-65
2023/09/28 09:24:54;;;;;;;11.13;5.77;;;;;;;23.74;48.93;100853.91;5111970;28;20046;-66
2023/09/28 09:27:28;;;;;;;9.40;5.65;;;;;;;23.73;48.95;100842.16;5111670;28;20283;-65
2023/09/28 09:29:58;;;;;;;9.02;5.10;;;;;;;23.77;48.83;100845.44;5112090;28;20105;-65
2023/09/28 09:32:28;;;;;;;7.20;5.07;;;;;;;23.78;49.11;100844.41;5112155;28;20044;-65
2023/09/28 09:34:56;;;;;;;9.20;5.53;;;;;;;23.79;48.85;100841.53;5111652;28;20051;-66
2023/09/28 09:37:25;;;;;;;10.82;5.70;;;;;;;23.81;48.74;100838.63;5111800;28;20051;-65
2023/09/28 09:39:53;;;;;;;9.00;5.57;;;;;;;23.82;48.88;100841.19;5111580;28;20061;-66
2023/09/28 09:42:29;;;;;;;9.25;5.78;;;;;;;23.84;48.84;100839.19;5111807;28;20047;-66
2023/09/28 09:44:57;;;;;;;8.85;5.40;;;;;;;23.85;48.92;100832.72;5111571;28;20054;-66
2023/09/28 09:47:26;;;;;;;10.65;5.47;;;;;;;23.87;48.86;100827.09;5111972;28;20093;-65
2023/09/28 09:49:55;;;;;;;10.45;5.95;;;;;;;23.89;48.90;100825.91;5111797;28;20044;-66
2023/09/28 09:52:26;;;;;;;6.32;5.22;;;;;;;23.91;48.64;100823.84;5111459;28;20056;-66
2023/09/28 09:54:56;;;;;;;7.18;5.22;;;;;;;23.94;48.75;100828.16;5114669;28;20480;-66
2023/09/28 09:57:24;;;;;;;8.57;5.57;;;;;;;23.96;48.70;100829.69;5115674;28;20085;-66
2023/09/28 09:59:54;;;;;;;9.38;5.35;;;;;;;23.96;48.74;100826.97;5115453;28;20074;-66
2023/09/28 10:02:28;;;;;;;8.60;5.50;;;;;;;24.01;48.71;100831.03;5115388;28;20075;-66
2023/09/28 10:05:00;;;;;;;10.13;5.43;;;;;;;24.04;48.70;100830.75;5115482;28;20099;-66
2023/09/28 10:07:34;;;;;;;8.95;5.55;;;;;;;24.06;48.65;100825.97;5115482;28;20044;-66
2023/09/28 10:10:18;;;;;;;8.63;5.10;;;;;;;24.10;48.65;100827.34;5115214;28;20130;-66
2023/09/28 10:12:48;;;;;;;10.02;5.22;;;;;;;24.13;48.69;100821.56;5115046;28;20112;-66
2023/09/28 10:15:18;;;;;;;7.32;5.05;;;;;;;24.15;48.65;100819.53;5115068;28;20071;-66
2023/09/28 10:17:47;;;;;;;8.43;5.75;;;;;;;24.18;48.67;100820.03;5115084;28;20444;-66
2023/09/28 10:20:16;;;;;;;9.45;5.40;;;;;;;24.22;48.52;100815.09;5115217;28;20147;-66
2023/09/28 10:22:45;;;;;;;7.47;5.28;;;;;;;24.23;48.49;100814.09;5115343;28;20069;-66
2023/09/28 10:25:17;;;;;;;9.85;5.60;;;;;;;24.28;48.65;100814.44;5115183;28;20044;-66
2023/09/28 10:27:46;;;;;;;7.70;5.40;;;;;;;24.31;48.62;100813.22;5114932;28;20048;-66
2023/09/28 10:30:21;;;;;;;9.30;5.20;;;;;;;24.35;48.53;100810.06;5114882;28;20051;-65
2023/09/28 10:32:52;;;;;;;7.88;5.30;;;;;;;24.39;48.46;100808.69;5114980;28;20094;-65
2023/09/28 10:35:27;;;;;;;7.80;5.10;;;;;;;24.43;48.29;100807.34;5114864;28;20040;-67
2023/09/28 10:38:19;;;;;;;8.55;5.38;;;;;;;24.47;48.25;100807.84;5114883;28;20070;-65
2023/09/28 10:41:03;;;;;;;7.50;5.10;;;;;;;24.51;48.04;100815.53;5114682;28;20138;-64
2023/09/28 10:43:34;;;;;;;9.15;5.22;;;;;;;24.54;48.15;100809.75;5114854;28;20139;-65
2023/09/28 10:46:05;;;;;;;8.77;5.25;;;;;;;24.60;47.95;100804.59;5114648;28;20052;-66
2023/09/28 10:48:39;;;;;;;8.35;5.65;;;;;;;24.63;48.02;100807.03;5114719;28;20046;-65
2023/09/28 10:51:12;;;;;;;8.43;5.07;;;;;;;24.67;47.73;100802.91;5114329;28;20133;-65
2023/09/28 10:53:41;;;;;;;8.52;5.28;;;;;;;24.70;47.66;100792.50;5114706;28;20155;-67
2023/09/28 10:56:10;;;;;;;8.32;5.28;;;;;;;24.73;47.76;100799.53;5114338;28;20400;-65
2023/09/28 10:58:40;;;;;;;8.05;5.10;;;;;;;24.78;47.58;100794.38;5114451;28;20069;-65
2023/09/28 11:01:10;;;;;;;7.25;5.07;;;;;;;24.82;47.51;100795.75;5114173;28;20101;-65
2023/09/28 11:03:40;;;;;;;8.23;5.00;;;;;;;24.86;47.27;100793.53;5114133;28;20043;-66
2023/09/28 11:06:09;;;;;;;6.82;4.53;;;;;;;24.88;47.46;100800.50;5113973;28;20047;-66
2023/09/28 11:08:39;;;;;;;6.70;4.38;;;;;;;24.91;47.34;100794.75;5114327;28;20066;-66
2023/09/28 11:11:08;;;;;;;8.00;5.00;;;;;;;24.96;47.28;100786.00;5114174;28;20104;-65
2023/09/28 11:13:36;;;;;;;7.45;5.00;;;;;;;24.99;47.17;100785.66;5114062;28;20855;-65
2023/09/28 11:16:05;;;;;;;7.40;4.93;;;;;;;25.04;47.12;100788.78;5114098;28;20484;-65
2023/09/28 11:18:35;;;;;;;9.00;5.07;;;;;;;25.07;46.89;100783.81;5113958;28;20579;-66
2023/09/28 11:21:03;;;;;;;7.70;4.70;;;;;;;25.11;46.71;100782.44;5114111;28;20147;-66
2023/09/28 11:23:31;;;;;;;8.38;5.15;;;;;;;25.15;46.75;100779.38;5114038;28;20043;-66
2023/09/28 11:26:00;;;;;;;8.30;4.75;;;;;;;25.18;46.73;100785.31;5113587;28;20495;-66
2023/09/28 11:28:29;;;;;;;7.40;4.70;;;;;;;25.21;46.59;100773.22;5113660;28;20043;-66
2023/09/28 11:31:09;;;;;;;7.45;4.82;;;;;;;25.25;46.67;100769.09;5114106;28;20048;-66
2023/09/28 11:33:38;;;;;;;7.72;4.72;;;;;;;25.29;46.48;100768.59;5113870;28;20043;-66
2023/09/28 11:36:08;;;;;;;6.22;4.63;;;;;;;25.34;46.64;100768.06;5113773;28;20072;-66